createdAt,value
2023-03-24T00:01:21.228Z,27.10
2023-03-24T00:03:52.420Z,25.90
2023-03-24T00:06:22.724Z,26.27
2023-03-24T00:08:51.518Z,29.90
2023-03-24T00:11:21.411Z,28.77
2023-03-24T00:13:51.400Z,29.67
2023-03-24T00:16:21.897Z,28.33
2023-03-24T00:18:53.903Z,33.17
2023-03-24T00:21:24.633Z,29.77
2023-03-24T00:23:55.395Z,30.80
2023-03-24T00:26:25.036Z,28.77
2023-03-24T00:28:55.605Z,31.17
2023-03-24T00:31:24.743Z,26.67
2023-03-24T00:33:53.973Z,28.97
2023-03-24T00:36:24.599Z,31.97
2023-03-24T00:38:54.033Z,29.50
2023-03-24T00:41:24.939Z,31.10
2023-03-24T00:43:58.418Z,30.10
2023-03-24T00:46:30.785Z,31.27
2023-03-24T00:49:03.774Z,28.97
2023-03-24T00:51:34.367Z,29.10
2023-03-24T00:54:03.361Z,25.37
2023-03-24T00:56:33.405Z,24.93
2023-03-24T00:59:03.523Z,30.30
2023-03-24T01:01:35.604Z,25.73
2023-03-24T01:04:07.069Z,30.53
2023-03-24T01:06:37.712Z,33.70
2023-03-24T01:09:07.382Z,35.20
2023-03-24T01:11:40.037Z,31.60
2023-03-24T01:14:12.077Z,28.83
2023-03-24T01:16:40.907Z,27.87
2023-03-24T01:19:09.910Z,28.80
2023-03-24T01:21:39.089Z,27.50
2023-03-24T01:24:08.409Z,28.40
2023-03-24T01:26:37.371Z,24.30
2023-03-24T01:29:06.102Z,28.63
2023-03-24T01:31:36.634Z,30.40
2023-03-24T01:34:05.494Z,25.90
2023-03-24T01:36:33.921Z,26.33
2023-03-24T01:39:02.341Z,26.60
2023-03-24T01:41:35.031Z,26.53
2023-03-24T01:44:23.832Z,29.93
2023-03-24T01:46:53.668Z,29.00
2023-03-24T01:49:22.840Z,26.10
2023-03-24T01:51:55.503Z,22.40
2023-03-24T01:54:27.546Z,26.90
2023-03-24T01:57:00.423Z,27.00
2023-03-24T01:59:31.368Z,30.07
2023-03-24T02:02:04.011Z,29.37
2023-03-24T02:04:35.496Z,27.97
2023-03-24T02:07:09.742Z,24.40
2023-03-24T02:09:38.253Z,23.57
2023-03-24T02:12:06.967Z,26.30
2023-03-24T02:14:35.537Z,29.90
2023-03-24T02:17:33.895Z,28.27
2023-03-24T02:20:33.771Z,28.67
2023-03-24T02:23:31.141Z,29.07
2023-03-24T02:26:33.058Z,30.40
2023-03-24T02:29:18.783Z,30.87
2023-03-24T02:32:10.588Z,26.03
2023-03-24T02:35:11.843Z,28.97
2023-03-24T02:38:20.549Z,26.63
2023-03-24T02:40:58.746Z,29.40
2023-03-24T02:43:39.220Z,25.13
2023-03-24T02:46:14.914Z,33.57
2023-03-24T02:48:55.495Z,27.93
2023-03-24T02:51:31.579Z,28.40
2023-03-24T02:54:08.463Z,29.80
2023-03-24T02:56:40.735Z,33.13
2023-03-24T02:59:13.106Z,30.03
2023-03-24T03:01:45.611Z,28.30
2023-03-24T03:04:17.975Z,31.10
2023-03-24T03:06:52.593Z,25.93
2023-03-24T03:09:22.792Z,28.30
2023-03-24T03:11:57.547Z,30.60
2023-03-24T03:14:30.750Z,30.53
2023-03-24T03:17:02.671Z,28.23
2023-03-24T03:19:34.552Z,34.60
2023-03-24T03:22:06.187Z,29.23
2023-03-24T03:24:39.347Z,29.43
2023-03-24T03:27:14.844Z,31.20
2023-03-24T03:29:48.896Z,29.53
2023-03-24T03:32:24.933Z,28.87
2023-03-24T03:34:58.508Z,29.83
2023-03-24T03:37:33.129Z,33.53
2023-03-24T03:40:06.301Z,29.53
2023-03-24T03:42:36.301Z,33.77
2023-03-24T03:45:05.171Z,27.10
2023-03-24T03:47:34.577Z,30.00
2023-03-24T03:50:04.593Z,27.30
2023-03-24T03:52:33.198Z,27.90
2023-03-24T03:55:01.722Z,27.67
2023-03-24T03:57:30.397Z,29.27
2023-03-24T04:00:07.969Z,29.00
2023-03-24T04:02:45.150Z,27.87
2023-03-24T04:05:27.736Z,28.87
2023-03-24T04:08:23.307Z,29.10
2023-03-24T04:11:23.568Z,30.17
2023-03-24T04:14:03.627Z,32.33
2023-03-24T04:16:45.859Z,31.50
2023-03-24T04:19:25.519Z,27.37
2023-03-24T04:22:14.630Z,27.93
2023-03-24T04:24:51.060Z,26.77
2023-03-24T04:27:27.578Z,36.70
2023-03-24T04:30:08.494Z,30.53
2023-03-24T04:32:46.493Z,36.53
2023-03-24T04:35:26.480Z,29.17
2023-03-24T04:37:56.430Z,34.07
2023-03-24T04:40:26.529Z,28.13
2023-03-24T04:42:56.447Z,28.57
2023-03-24T04:45:25.834Z,31.40
2023-03-24T04:47:58.844Z,35.27
2023-03-24T04:50:32.241Z,44.07
2023-03-24T04:53:00.644Z,27.57
2023-03-24T04:55:49.419Z,30.90
2023-03-24T04:58:18.135Z,35.57
2023-03-24T05:00:47.130Z,30.93
2023-03-24T05:03:17.877Z,31.93
2023-03-24T05:05:48.307Z,32.80
2023-03-24T05:08:17.636Z,35.60
2023-03-24T05:10:46.658Z,38.93
2023-03-24T05:13:16.226Z,41.70
2023-03-24T05:15:44.854Z,38.47
2023-03-24T05:18:13.367Z,34.70
2023-03-24T05:20:43.069Z,32.87
2023-03-24T05:23:11.558Z,31.77
2023-03-24T05:25:39.976Z,28.87
2023-03-24T05:28:08.220Z,33.23
2023-03-24T05:30:36.629Z,34.03
2023-03-24T05:33:05.033Z,32.17
2023-03-24T05:35:33.369Z,33.30
2023-03-24T05:38:03.083Z,37.37
2023-03-24T05:40:31.456Z,32.97
2023-03-24T05:42:59.746Z,34.43
2023-03-24T05:45:29.568Z,32.33
2023-03-24T05:47:58.052Z,32.03
2023-03-24T05:50:26.552Z,30.67
2023-03-24T05:52:54.813Z,30.67
2023-03-24T05:55:25.251Z,29.97
2023-03-24T05:57:54.041Z,28.10
2023-03-24T06:00:23.541Z,30.90
2023-03-24T06:02:52.356Z,29.43
2023-03-24T06:05:21.107Z,31.70
2023-03-24T06:07:49.529Z,30.13
2023-03-24T06:10:18.538Z,24.57
2023-03-24T06:12:48.272Z,30.70
2023-03-24T06:15:17.589Z,31.20
2023-03-24T06:17:46.288Z,25.87
2023-03-24T06:20:16.279Z,28.27
2023-03-24T06:22:46.161Z,26.27
2023-03-24T06:25:16.869Z,25.27
2023-03-24T06:27:47.217Z,32.47
2023-03-24T06:30:16.890Z,28.63
2023-03-24T06:32:46.935Z,29.23
2023-03-24T06:35:15.945Z,31.33
2023-03-24T06:37:44.914Z,26.00
2023-03-24T06:40:16.354Z,27.17
2023-03-24T06:42:45.000Z,29.07
2023-03-24T06:45:14.808Z,27.47
2023-03-24T06:47:43.124Z,27.63
2023-03-24T06:50:12.414Z,25.43
2023-03-24T06:52:41.377Z,31.00
2023-03-24T06:55:10.453Z,24.00
2023-03-24T06:57:38.766Z,23.97
2023-03-24T07:00:10.389Z,23.33
2023-03-24T07:02:40.518Z,26.47
2023-03-24T07:05:11.074Z,26.33
2023-03-24T07:10:14.183Z,26.03
2023-03-24T07:12:42.535Z,25.10
2023-03-24T07:15:11.609Z,21.27
2023-03-24T07:17:42.742Z,21.63
2023-03-24T07:20:11.640Z,24.27
2023-03-24T07:22:39.959Z,22.03
2023-03-24T07:25:09.022Z,25.43
2023-03-24T07:27:39.455Z,22.87
2023-03-24T07:30:10.345Z,19.07
2023-03-24T07:32:46.360Z,20.67
2023-03-24T07:35:14.772Z,22.67
2023-03-24T07:37:43.766Z,21.70
2023-03-24T07:40:13.868Z,19.67
2023-03-24T07:42:43.158Z,16.90
2023-03-24T07:45:13.140Z,18.80
2023-03-24T07:47:45.457Z,21.00
2023-03-24T07:50:15.173Z,19.00
2023-03-24T07:52:48.079Z,21.60
2023-03-24T07:55:16.865Z,17.27
2023-03-24T07:57:48.293Z,16.37
2023-03-24T08:00:18.248Z,20.13
2023-03-24T08:02:49.638Z,21.70
2023-03-24T08:05:19.612Z,19.33
2023-03-24T08:07:53.598Z,20.23
2023-03-24T08:10:23.358Z,17.37
2023-03-24T08:12:52.047Z,17.30
2023-03-24T08:15:20.545Z,20.17
2023-03-24T08:17:51.891Z,29.17
2023-03-24T08:20:21.400Z,19.33
2023-03-24T08:22:50.840Z,25.07
2023-03-24T08:25:20.365Z,19.90
2023-03-24T08:27:49.058Z,18.40
2023-03-24T08:30:20.242Z,24.83
2023-03-24T08:32:52.194Z,18.57
2023-03-24T08:35:23.235Z,20.23
2023-03-24T08:37:51.745Z,19.33
2023-03-24T08:40:23.437Z,19.47
2023-03-24T08:42:53.663Z,19.97
2023-03-24T08:45:24.041Z,19.57
2023-03-24T08:47:55.073Z,18.17
2023-03-24T08:50:25.859Z,20.13
2023-03-24T08:52:56.331Z,16.93
2023-03-24T08:55:25.880Z,19.10
2023-03-24T08:57:54.729Z,18.30
2023-03-24T09:00:23.564Z,21.83
2023-03-24T09:02:55.014Z,17.20
2023-03-24T09:05:40.885Z,17.97
2023-03-24T09:08:12.946Z,17.87
2023-03-24T09:10:53.260Z,15.93
2023-03-24T09:13:22.381Z,17.37
2023-03-24T09:15:52.557Z,15.80
2023-03-24T09:18:23.577Z,16.73
2023-03-24T09:20:52.421Z,17.80
2023-03-24T09:23:21.624Z,17.27
2023-03-24T09:25:51.031Z,16.30
2023-03-24T09:28:19.731Z,17.10
2023-03-24T09:30:48.663Z,16.93
2023-03-24T09:33:17.310Z,17.30
2023-03-24T09:35:47.016Z,15.43
2023-03-24T09:38:15.380Z,16.20
2023-03-24T09:40:44.229Z,15.97
2023-03-24T09:43:21.659Z,16.83
2023-03-24T09:45:52.538Z,15.33
2023-03-24T09:48:27.341Z,13.47
2023-03-24T09:51:01.331Z,14.17
2023-03-24T09:53:37.062Z,17.17
2023-03-24T09:56:13.324Z,15.17
2023-03-24T09:58:42.737Z,12.63
2023-03-24T10:01:15.999Z,13.37
2023-03-24T10:03:45.099Z,14.70
2023-03-24T10:06:21.890Z,13.00
2023-03-24T10:08:55.424Z,14.77
2023-03-24T10:11:30.165Z,25.50
2023-03-24T10:14:14.485Z,14.50
2023-03-24T10:16:50.935Z,12.83
2023-03-24T10:19:29.613Z,13.10
2023-03-24T10:22:07.401Z,13.68
2023-03-24T10:24:42.312Z,13.60
2023-03-24T10:27:17.414Z,16.08
2023-03-24T10:29:47.146Z,13.68
2023-03-24T10:32:22.125Z,16.08
2023-03-24T10:34:55.912Z,14.73
2023-03-24T10:37:25.614Z,17.02
2023-03-24T10:39:53.963Z,15.93
2023-03-24T10:42:29.816Z,15.32
2023-03-24T10:44:58.365Z,11.10
2023-03-24T10:47:30.746Z,13.67
2023-03-24T10:50:14.323Z,10.77
2023-03-24T10:52:48.998Z,12.32
2023-03-24T10:55:19.218Z,10.82
2023-03-24T10:57:50.858Z,12.85
2023-03-24T11:00:27.022Z,11.57
2023-03-24T11:02:58.858Z,10.63
2023-03-24T11:05:33.316Z,10.80
2023-03-24T11:08:16.514Z,10.43
2023-03-24T11:10:45.252Z,12.02
2023-03-24T11:13:19.769Z,7.50
2023-03-24T11:15:56.944Z,9.80
2023-03-24T11:18:25.646Z,10.82
2023-03-24T11:20:58.316Z,11.18
2023-03-24T11:23:32.316Z,12.65
2023-03-24T11:26:09.345Z,9.80
2023-03-24T11:28:41.269Z,11.85
2023-03-24T11:31:11.893Z,9.75
2023-03-24T11:33:47.670Z,9.88
2023-03-24T11:36:40.284Z,12.40
2023-03-24T11:39:14.805Z,11.95
2023-03-24T11:41:45.668Z,9.88
2023-03-24T11:44:21.004Z,12.85
2023-03-24T11:46:53.469Z,10.85
2023-03-24T11:49:28.919Z,13.52
2023-03-24T11:51:57.569Z,12.48
2023-03-24T11:54:33.003Z,8.05
2023-03-24T11:57:05.676Z,9.23
2023-03-24T11:59:38.737Z,11.57
2023-03-24T12:02:17.401Z,10.15
2023-03-24T12:05:10.588Z,9.05
2023-03-24T12:08:08.077Z,11.75
2023-03-24T12:10:51.176Z,8.85
2023-03-24T12:13:33.018Z,9.57
2023-03-24T12:16:20.932Z,7.93
2023-03-24T12:19:21.695Z,9.35
2023-03-24T12:21:58.435Z,12.70
2023-03-24T12:24:44.059Z,11.23
2023-03-24T12:27:26.522Z,7.75
2023-03-24T12:30:02.634Z,8.73
2023-03-24T12:32:48.081Z,8.77
2023-03-24T12:35:52.090Z,11.70
2023-03-24T12:38:40.130Z,9.05
2023-03-24T12:41:25.118Z,7.78
2023-03-24T12:44:12.256Z,9.05
2023-03-24T12:46:49.339Z,11.65
2023-03-24T12:49:42.534Z,10.35
2023-03-24T12:52:29.412Z,7.05
2023-03-24T12:55:05.146Z,8.25
2023-03-24T12:57:39.831Z,7.35
2023-03-24T13:00:17.297Z,8.65
2023-03-24T13:02:52.532Z,10.30
2023-03-24T13:05:26.657Z,6.43
2023-03-24T13:07:59.026Z,6.30
2023-03-24T13:10:29.806Z,4.97
2023-03-24T13:13:03.598Z,6.25
2023-03-24T13:15:40.057Z,6.20
2023-03-24T13:18:20.950Z,7.53
2023-03-24T13:20:53.802Z,5.20
2023-03-24T13:23:33.919Z,6.35
2023-03-24T13:26:12.151Z,5.55
2023-03-24T13:28:47.730Z,6.10
2023-03-24T13:31:18.970Z,6.18
2023-03-24T13:33:47.790Z,8.02
2023-03-24T13:36:32.044Z,5.28
2023-03-24T13:39:05.551Z,6.07
2023-03-24T13:41:38.207Z,3.78
2023-03-24T13:44:16.460Z,6.05
2023-03-24T13:47:21.058Z,7.28
2023-03-24T13:49:59.954Z,7.63
2023-03-24T13:52:33.775Z,6.38
2023-03-24T13:55:09.165Z,6.55
2023-03-24T13:57:42.563Z,4.10
2023-03-24T14:00:21.462Z,8.23
2023-03-24T14:02:52.742Z,4.65
2023-03-24T14:05:36.423Z,3.15
2023-03-24T14:08:17.063Z,4.40
2023-03-24T14:10:47.333Z,4.80
2023-03-24T14:13:36.730Z,5.78
2023-03-24T14:16:37.992Z,5.55
2023-03-24T14:19:23.656Z,5.10
2023-03-24T14:22:00.382Z,5.75
2023-03-24T14:24:31.431Z,7.10
2023-03-24T14:26:59.946Z,4.13
2023-03-24T14:29:43.230Z,11.55
2023-03-24T14:32:20.439Z,5.18
2023-03-24T14:34:57.057Z,5.32
2023-03-24T14:37:27.289Z,5.45
2023-03-24T14:39:58.138Z,4.38
2023-03-24T14:43:11.926Z,4.53
2023-03-24T14:46:00.009Z,7.57
2023-03-24T14:48:39.459Z,3.95
2023-03-24T14:51:37.533Z,5.72
2023-03-24T14:54:08.459Z,4.28
2023-03-24T14:56:40.592Z,6.05
2023-03-24T14:59:16.957Z,5.13
2023-03-24T15:01:49.763Z,3.97
2023-03-24T15:04:18.239Z,7.00
2023-03-24T15:06:50.657Z,5.47
2023-03-24T15:09:19.868Z,7.18
2023-03-24T15:11:50.199Z,4.10
2023-03-24T15:14:28.545Z,5.90
2023-03-24T15:16:59.736Z,5.03
2023-03-24T15:19:32.709Z,6.40
2023-03-24T15:22:04.092Z,7.43
2023-03-24T15:24:35.538Z,6.57
2023-03-24T15:27:27.726Z,3.60
2023-03-24T15:29:59.183Z,3.42
2023-03-24T15:32:32.239Z,5.63
2023-03-24T15:35:05.797Z,7.60
2023-03-24T15:37:40.576Z,5.32
2023-03-24T15:40:37.043Z,9.68
2023-03-24T15:43:08.030Z,6.65
2023-03-24T15:45:38.827Z,10.95
2023-03-24T15:48:10.097Z,12.27
2023-03-24T15:50:40.139Z,11.95
2023-03-24T15:53:25.909Z,6.57
2023-03-24T15:56:08.718Z,6.65
2023-03-24T15:58:48.928Z,6.35
2023-03-24T16:01:20.132Z,8.93
2023-03-24T16:03:52.123Z,6.80
2023-03-24T16:06:30.221Z,10.20
2023-03-24T16:09:02.609Z,9.35
2023-03-24T16:11:31.354Z,8.68
2023-03-24T16:14:00.288Z,15.52
2023-03-24T16:16:30.163Z,7.85
2023-03-24T16:18:59.554Z,8.38
2023-03-24T16:21:29.622Z,7.70
2023-03-24T16:24:00.689Z,10.43
2023-03-24T16:26:31.128Z,14.45
2023-03-24T16:29:04.680Z,11.88
2023-03-24T16:31:35.606Z,9.73
2023-03-24T16:34:03.997Z,6.85
2023-03-24T16:36:32.500Z,8.18
2023-03-24T16:39:03.192Z,9.20
2023-03-24T16:41:31.478Z,8.13
2023-03-24T16:43:59.779Z,7.00
2023-03-24T16:46:33.572Z,7.57
2023-03-24T16:49:03.030Z,8.88
2023-03-24T16:51:31.335Z,12.77
2023-03-24T16:54:01.320Z,10.35
2023-03-24T16:56:30.297Z,11.00
2023-03-24T16:58:59.702Z,8.68
2023-03-24T17:01:33.791Z,11.63
2023-03-24T17:04:04.017Z,18.75
2023-03-24T17:06:33.956Z,11.53
2023-03-24T17:09:06.004Z,11.73
2023-03-24T17:11:36.989Z,9.20
2023-03-24T17:14:08.412Z,12.90
2023-03-24T17:16:38.850Z,8.53
2023-03-24T17:19:07.587Z,9.93
2023-03-24T17:21:38.305Z,10.07
2023-03-24T17:24:10.721Z,9.40
2023-03-24T17:26:39.434Z,9.37
2023-03-24T17:29:07.928Z,11.40
2023-03-24T17:31:36.316Z,10.37
2023-03-24T17:34:18.693Z,12.07
2023-03-24T17:36:51.336Z,11.03
2023-03-24T17:39:22.133Z,14.37
2023-03-24T17:41:50.495Z,14.77
2023-03-24T17:44:18.800Z,12.43
2023-03-24T17:46:47.156Z,13.13
2023-03-24T17:49:15.563Z,9.23
2023-03-24T17:51:43.870Z,9.77
2023-03-24T17:54:13.361Z,10.73
2023-03-24T17:56:43.329Z,11.40
2023-03-24T17:59:11.643Z,13.73
2023-03-24T18:01:40.501Z,11.83
2023-03-24T18:04:09.179Z,12.00
2023-03-24T18:06:38.628Z,13.70
2023-03-24T18:09:08.761Z,11.43
2023-03-24T18:11:37.574Z,17.20
2023-03-24T18:14:09.236Z,16.73
2023-03-24T18:16:39.245Z,13.27
2023-03-24T18:19:07.848Z,15.07
2023-03-24T18:21:36.150Z,14.57
2023-03-24T18:24:04.677Z,15.43
2023-03-24T18:26:33.697Z,15.60
2023-03-24T18:29:01.981Z,13.93
2023-03-24T18:31:32.820Z,16.63
2023-03-24T18:34:04.219Z,22.23
2023-03-24T18:36:32.576Z,12.40
2023-03-24T18:39:03.682Z,21.20
2023-03-24T18:41:32.109Z,21.20
2023-03-24T18:44:01.419Z,17.43
2023-03-24T18:46:31.457Z,18.63
2023-03-24T18:48:59.985Z,15.93
2023-03-24T18:51:34.036Z,20.00
2023-03-24T18:54:02.621Z,17.30
2023-03-24T18:56:31.236Z,23.57
2023-03-24T18:58:59.623Z,22.87
2023-03-24T19:01:30.314Z,22.80
2023-03-24T19:04:00.927Z,20.23
2023-03-24T19:06:31.217Z,27.73
2023-03-24T19:09:00.533Z,22.13
2023-03-24T19:11:28.952Z,19.17
2023-03-24T19:13:58.085Z,18.87
2023-03-24T19:16:26.493Z,19.30
2023-03-24T19:18:57.905Z,22.90
2023-03-24T19:21:27.816Z,21.00
2023-03-24T19:23:57.172Z,20.53
2023-03-24T19:26:25.978Z,30.70
2023-03-24T19:28:54.447Z,21.30
2023-03-24T19:31:22.784Z,26.53
2023-03-24T19:33:52.227Z,39.77
2023-03-24T19:36:20.648Z,24.80
2023-03-24T19:38:50.993Z,25.20
2023-03-24T19:41:19.283Z,23.40
2023-03-24T19:43:47.635Z,28.30
2023-03-24T19:46:17.223Z,26.30
2023-03-24T19:48:45.604Z,25.47
2023-03-24T19:51:13.903Z,23.80
2023-03-24T19:53:42.182Z,26.93
2023-03-24T19:56:12.138Z,17.40
2023-03-24T19:58:40.478Z,23.30
2023-03-24T20:01:08.752Z,24.87
2023-03-24T20:03:38.032Z,24.47
2023-03-24T20:06:09.029Z,26.50
2023-03-24T20:08:37.443Z,18.30
2023-03-24T20:11:08.621Z,22.77
2023-03-24T20:13:38.344Z,33.07
2023-03-24T20:16:07.352Z,24.50
2023-03-24T20:18:35.950Z,23.97
2023-03-24T20:21:06.424Z,35.23
2023-03-24T20:23:34.727Z,31.97
2023-03-24T20:26:03.134Z,30.20
2023-03-24T20:28:31.528Z,27.80
2023-03-24T20:31:02.177Z,36.63
2023-03-24T20:33:31.181Z,30.23
2023-03-24T20:35:59.849Z,36.67
2023-03-24T20:38:28.749Z,23.57
2023-03-24T20:41:01.199Z,25.10
2023-03-24T20:43:34.981Z,28.67
2023-03-24T20:46:05.857Z,26.40
2023-03-24T20:48:34.418Z,26.37
2023-03-24T20:51:03.895Z,28.17
2023-03-24T20:53:35.065Z,27.87
2023-03-24T20:56:06.653Z,20.43
2023-03-24T20:58:35.968Z,29.13
2023-03-24T21:01:08.738Z,21.17
2023-03-24T21:03:37.968Z,15.70
2023-03-24T21:06:06.689Z,25.97
2023-03-24T21:08:35.017Z,20.90
2023-03-24T21:11:03.354Z,17.90
2023-03-24T21:13:37.448Z,21.93
2023-03-24T21:16:09.008Z,22.00
2023-03-24T21:18:38.018Z,21.77
2023-03-24T21:21:07.441Z,19.87
2023-03-24T21:23:39.252Z,20.83
2023-03-24T21:26:09.399Z,18.47
2023-03-24T21:28:37.678Z,19.50
2023-03-24T21:31:11.444Z,21.27
2023-03-24T21:33:41.054Z,21.40
2023-03-24T21:36:10.972Z,25.97
2023-03-24T21:38:40.197Z,20.70
2023-03-24T21:41:09.078Z,19.97
2023-03-24T21:43:37.498Z,24.77
2023-03-24T21:46:06.776Z,24.47
2023-03-24T21:48:40.182Z,23.70
2023-03-24T21:51:08.634Z,23.10
2023-03-24T21:53:36.975Z,26.47
2023-03-24T21:56:05.640Z,23.90
2023-03-24T21:58:34.947Z,26.23
2023-03-24T22:01:03.391Z,22.80
2023-03-24T22:03:34.571Z,23.97
2023-03-24T22:06:05.028Z,33.13
2023-03-24T22:08:33.705Z,29.00
2023-03-24T22:11:04.417Z,22.33
2023-03-24T22:13:34.586Z,26.00
2023-03-24T22:16:04.973Z,26.33
2023-03-24T22:18:35.446Z,29.93
2023-03-24T22:21:07.696Z,26.57
2023-03-24T22:23:38.163Z,26.27
2023-03-24T22:26:09.278Z,23.63
2023-03-24T22:28:38.243Z,20.80
2023-03-24T22:31:08.252Z,20.53
2023-03-24T22:33:36.708Z,22.70
2023-03-24T22:36:07.351Z,27.73
2023-03-24T22:38:36.063Z,26.37
2023-03-24T22:41:06.624Z,21.90
2023-03-24T22:43:36.389Z,22.57
2023-03-24T22:46:05.240Z,28.33
2023-03-24T22:48:33.545Z,26.20
2023-03-24T22:51:02.311Z,29.23
2023-03-24T22:53:32.246Z,26.30
2023-03-24T22:56:00.536Z,28.27
2023-03-24T22:58:28.985Z,25.30
2023-03-24T23:00:58.015Z,23.57
2023-03-24T23:03:26.516Z,29.93
2023-03-24T23:05:55.252Z,28.90
2023-03-24T23:08:24.945Z,25.83
2023-03-24T23:10:55.803Z,25.23
2023-03-24T23:13:25.417Z,25.93
2023-03-24T23:15:54.572Z,26.83
2023-03-24T23:18:22.933Z,29.30
2023-03-24T23:20:51.304Z,26.17
2023-03-24T23:23:19.603Z,25.93
2023-03-24T23:25:48.651Z,31.90
2023-03-24T23:28:18.682Z,24.77
2023-03-24T23:30:47.003Z,29.60
2023-03-24T23:33:15.377Z,27.93
2023-03-24T23:35:43.793Z,32.33
2023-03-24T23:38:12.177Z,29.90
2023-03-24T23:40:40.502Z,31.10
2023-03-24T23:43:08.830Z,27.57
2023-03-24T23:45:38.805Z,25.63
2023-03-24T23:48:08.138Z,28.27
2023-03-24T23:50:36.477Z,30.17
2023-03-24T23:53:04.808Z,29.00
2023-03-24T23:55:33.097Z,28.80
2023-03-24T23:58:01.940Z,27.50
